Lima, New York
Current Conditions -  °F | °C
As of 9:54 AM on Thursday 30 Oct 2014 (Local Time) from KROC Reporting Station
Broken Clouds Broken Clouds  
Wind Chill: 39°   Ceiling: 3200
Heat Index: 45°   Visibility: 10mi
Dew Point: 36°   Wind: 13mph
Humidity: 71%   Direction: 300°WNW
Pressure: 30.07"   Gusts: NA
Location:  42.9°N, 77.61°W
Report Text: KROC 301354Z 30011KT 10SM FEW022 BKN032 BKN070 07/02 A3007 RMK AO2 SLP187 T00720022
Loading
Personal Weather Stations






























Interactive Weather Map
Tropical Storm Tracking
New forecast layout! Learn more

10-Day Weather Forecast

Advertisements
Track Severe Weather on mobile